Tuesday, November 21, 2017, 10:51 AM EST
Back to Local

KDOV, Dover Air Force Base

Location: Dover, DE, United States Lat: 39.133
Local Time: 10:51 AM EST (15:51 GMT) Lon: -75.467
Time Zone: US/Eastern Elev: 29 ft

Show me the last for .
Show Coded

Time T Td Feel RH Dir Speed Gust Alt SLP Vis Weather Sky Remarks
2017-11-21 09:56 53 32 - 44 200° 16 - 30.16 30.17 10 CLR None
2017-11-21 08:56 49 37 44 63 200° 13 - 30.17 30.18 10 CLR None
2017-11-21 07:56 43 31 38 61 200° 9 - 30.17 30.18 10 CLR None
2017-11-21 06:56 41 33 35 72 200° 12 - 30.16 30.17 10 CLR 6-hr Min Temp (7am): 37.8°F
6-hr Max Temp (7am): 42.3°F
2017-11-21 05:56 42 34 36 72 200° 10 - 30.16 30.17 10 CLR None
2017-11-21 04:56 39 39 32 100 180° 10 - 30.15 30.16 10 CLR None
2017-11-21 03:56 40 39 34 99 180° 8 - 30.16 30.17 10 CLR None
2017-11-21 02:56 39 38 34 95 180° 8 - 30.18 30.19 10 CLR None
2017-11-21 01:56 40 37 35 88 190° 8 - 30.18 30.19 10 CLR None
2017-11-21 00:56 42 37 35 82 200° 10 - 30.18 30.19 10 CLR 6-hr Min Temp (1am): 37.6°F
6-hr Max Temp (1am): 41.5°F
2017-11-20 23:56 41 35 36 80 190° 8 - 30.19 30.20 10 CLR 24-hr Min Temp (12am): 37.4°F
24-hr Max Temp (12am): 48.4°F
2017-11-20 22:56 40 34 34 80 200° 8 - 30.19 30.20 10 CLR None
2017-11-20 21:56 38 24 32 57 200° 8 - 30.19 30.20 10 CLR None
2017-11-20 20:56 40 24 34 53 190° 8 - 30.18 30.19 10 CLR None
2017-11-20 19:56 41 23 36 48 210° 8 - 30.18 30.19 10 CLR None
2017-11-20 18:56 40 22 36 48 210° 6 - 30.17 30.18 10 CLR 6-hr Min Temp (7pm): 40.1°F
6-hr Max Temp (7pm): 48.4°F
2017-11-20 17:56 40 24 35 51 210° 8 - 30.16 30.17 10 CLR None
2017-11-20 16:56 45 23 41 42 240° 7 - 30.16 30.17 10 CLR None
2017-11-20 15:56 47 23 42 37 250° 12 - 30.16 30.17 10 CLR None
2017-11-20 14:56 48 23 42 36 260° 16 - 30.15 30.16 10 CLR None
2017-11-20 13:56 48 20 41 32 230° 15 21 30.15 30.16 10 CLR None
2017-11-20 13:54 48 19 41 31 230° 16 21 30.15 30.16 10 CLR Wind Shift: 49 min
2017-11-20 12:56 47 20 40 33 260° 15 22 30.15 30.16 10 CLR 6-hr Min Temp (1pm): 37.4°F
6-hr Max Temp (1pm): 47.5°F
2017-11-20 11:56 46 20 38 35 270° 13 21 30.15 30.16 10 CLR None
2017-11-20 10:56 45 22 39 39 250° 13 - 30.17 30.18 10 CLR None

Support USWX by starting your Amazon purchase here.